Time;durP1;ratioP1;P1;durP2;ratioP2;P2;SDS_P1;SDS_P2;PMS_P1;PMS_P2;Temp;Humidity;BMP_temperature;BMP_pressure;BME280_temperature;BME280_humidity;BME280_pressure;Samples;Min_cycle;Max_cycle;Signal;HPM_P1;HPM_P2
2023/07/31 00:01:23;;;;;;;6.05;4.25;;;;;;;-143.21;66.40;71132.38;5126292;27;20200;-79
2023/07/31 00:03:50;;;;;;;4.45;3.75;;;;;;;-143.21;65.80;71132.38;5109889;27;21429;-79
2023/07/31 00:06:18;;;;;;;6.35;4.10;;;;;;;-143.21;66.21;71146.25;5110898;27;20223;-79
2023/07/31 00:08:45;;;;;;;5.18;3.70;;;;;;;-143.21;66.59;71142.28;5109929;27;20204;-79
2023/07/31 00:11:12;;;;;;;4.00;3.60;;;;;;;-143.21;66.22;71126.41;5110178;27;20200;-80
2023/07/31 00:13:39;;;;;;;6.28;4.30;;;;;;;-143.21;66.10;71130.38;5116907;27;20219;-79
2023/07/31 00:16:05;;;;;;;4.45;4.05;;;;;;;-143.21;66.60;71128.41;5121284;27;20678;-79
2023/07/31 00:18:32;;;;;;;5.55;4.10;;;;;;;-143.21;67.24;71142.28;5113201;27;20254;-80
2023/07/31 00:20:59;;;;;;;5.57;4.55;;;;;;;-143.21;68.78;71146.25;5124606;27;20206;-79
2023/07/31 00:23:27;;;;;;;5.53;4.70;;;;;;;-143.21;70.02;71152.19;5109699;27;20232;-80
2023/07/31 00:25:54;;;;;;;5.93;4.60;;;;;;;-143.21;71.07;71164.09;5099068;27;20218;-79
2023/07/31 00:28:21;;;;;;;6.18;4.50;;;;;;;-143.21;71.42;71158.13;5110131;27;20196;-80
2023/07/31 00:30:47;;;;;;;6.20;4.75;;;;;;;-143.21;72.70;71174.00;5111467;27;20303;-81
2023/07/31 00:33:14;;;;;;;6.93;5.15;;;;;;;-143.21;73.54;71170.03;5114576;27;20230;-79
2023/07/31 00:35:41;;;;;;;10.70;5.72;;;;;;;-143.21;73.76;71175.97;5110277;27;20663;-79
2023/07/31 00:38:08;;;;;;;6.85;5.22;;;;;;;-143.21;74.36;71181.94;5113890;27;20208;-80
2023/07/31 00:40:37;;;;;;;6.28;5.13;;;;;;;-143.21;74.49;71179.94;5109947;27;20191;-79
2023/07/31 00:43:04;;;;;;;6.15;5.55;;;;;;;-143.21;74.65;71174.00;5112423;27;20207;-79
2023/07/31 00:45:32;;;;;;;8.57;5.95;;;;;;;-143.21;74.38;71170.03;5127060;27;20203;-80
2023/07/31 00:47:59;;;;;;;10.07;6.60;;;;;;;-143.21;74.30;71164.09;5119733;27;20724;-80
2023/07/31 00:50:26;;;;;;;8.30;7.47;;;;;;;-143.21;74.09;71160.13;5109660;28;20223;-80
2023/07/31 00:52:53;;;;;;;11.05;8.05;;;;;;;-143.21;74.08;71152.19;5109935;27;20694;-78
2023/07/31 00:55:21;;;;;;;10.52;7.97;;;;;;;-143.21;73.69;71150.22;5122773;27;20199;-79
2023/07/31 00:57:51;;;;;;;9.68;7.82;;;;;;;-143.21;73.70;71156.16;5108603;27;20207;-79
2023/07/31 01:00:18;;;;;;;9.35;7.82;;;;;;;-143.21;73.72;71152.19;5111145;27;20235;-78
2023/07/31 01:02:45;;;;;;;9.90;8.23;;;;;;;-143.21;74.50;71170.03;5109765;27;20261;-79
2023/07/31 01:05:12;;;;;;;11.45;9.30;;;;;;;-143.21;75.51;71183.91;5110833;27;20608;-80
2023/07/31 01:07:48;;;;;;;15.35;11.63;;;;;;;-143.21;75.90;71189.84;5117241;27;20226;-78
2023/07/31 01:10:20;;;;;;;13.40;11.68;;;;;;;-143.21;77.25;71207.69;5110618;27;20196;-78
2023/07/31 01:12:48;;;;;;;16.48;13.30;;;;;;;-143.21;77.58;71221.56;5117427;27;20204;-79
2023/07/31 01:15:17;;;;;;;15.40;12.20;;;;;;;-143.21;78.40;71223.56;5108374;27;20578;-79
2023/07/31 01:17:44;;;;;;;14.43;12.57;;;;;;;-143.21;78.21;71211.66;5108513;28;20368;-78
2023/07/31 01:20:14;;;;;;;16.35;12.82;;;;;;;-143.21;78.20;71215.63;5109170;28;20514;-80
2023/07/31 01:23:17;;;;;;;19.17;15.98;;;;;;;-143.21;79.57;71249.34;5109860;28;20208;-78
2023/07/31 01:26:00;;;;;;;16.10;14.27;;;;;;;-143.21;80.26;71249.34;5108497;28;20614;-77
2023/07/31 01:28:34;;;;;;;20.80;15.88;;;;;;;-143.21;80.97;71263.22;5109323;28;20202;-78
2023/07/31 01:31:03;;;;;;;20.27;17.70;;;;;;;-143.21;81.69;71267.19;5104035;28;20210;-78
2023/07/31 01:33:30;;;;;;;21.75;17.70;;;;;;;-143.21;82.10;71269.16;5120152;27;20624;-77
2023/07/31 01:35:58;;;;;;;21.25;18.65;;;;;;;-143.21;82.44;71265.19;5109540;27;20599;-78
2023/07/31 01:38:25;;;;;;;25.95;21.02;;;;;;;-143.21;81.94;71251.31;5109075;28;20199;-78
2023/07/31 01:40:53;;;;;;;24.85;19.50;;;;;;;-143.21;82.20;71255.28;5109148;28;20253;-78
2023/07/31 01:43:21;;;;;;;31.38;23.40;;;;;;;-143.21;82.03;71245.38;5109221;28;20223;-77
2023/07/31 01:45:48;;;;;;;27.60;23.65;;;;;;;-143.21;82.73;71261.22;5107822;28;20211;-78
2023/07/31 01:48:15;;;;;;;30.73;23.70;;;;;;;-143.21;83.48;71263.22;5098470;28;20658;-77
2023/07/31 01:50:41;;;;;;;29.58;22.88;;;;;;;-143.21;83.74;71271.13;5100062;28;20196;-78
2023/07/31 01:53:08;;;;;;;25.08;20.60;;;;;;;-143.21;83.73;71273.13;5105333;28;20205;-78
2023/07/31 01:55:35;;;;;;;28.25;22.33;;;;;;;-143.21;84.00;71273.13;5107757;28;20192;-79
2023/07/31 01:58:02;;;;;;;25.77;21.02;;;;;;;-143.21;84.07;71271.13;5108049;28;20586;-78
2023/07/31 02:00:31;;;;;;;26.95;20.98;;;;;;;-143.21;84.06;71267.19;5108312;28;20192;-78
2023/07/31 02:02:58;;;;;;;28.33;20.58;;;;;;;-143.21;83.77;71265.19;5107717;28;20701;-78
2023/07/31 02:05:24;;;;;;;25.45;20.40;;;;;;;-143.21;83.54;71265.19;5109290;28;20207;-78
2023/07/31 02:07:51;;;;;;;25.88;19.95;;;;;;;-143.21;83.97;71267.19;5118536;27;20255;-78
2023/07/31 02:10:18;;;;;;;23.67;20.65;;;;;;;-143.21;83.52;71255.28;5113914;28;20660;-78
2023/07/31 02:12:45;;;;;;;22.88;19.50;;;;;;;-143.21;83.04;71243.38;5116912;28;20223;-78
2023/07/31 02:15:11;;;;;;;24.58;20.60;;;;;;;-143.21;82.72;71235.44;5119969;28;20605;-77
2023/07/31 02:17:39;;;;;;;25.75;19.90;;;;;;;-143.21;82.96;71241.41;5111945;28;20196;-80
2023/07/31 02:20:08;;;;;;;25.17;20.73;;;;;;;-143.21;83.43;71237.44;5122711;28;20203;-80
2023/07/31 02:22:35;;;;;;;28.40;20.45;;;;;;;-143.21;83.09;71235.44;5108917;28;20214;-81
2023/07/31 02:25:01;;;;;;;26.65;21.10;;;;;;;-143.21;83.08;71239.41;5108811;28;20204;-81
2023/07/31 02:27:31;;;;;;;27.58;21.52;;;;;;;-143.21;83.73;71245.38;5109546;28;20192;-81
2023/07/31 02:29:59;;;;;;;26.52;21.38;;;;;;;-143.21;83.73;71237.44;5109019;28;20291;-81
2023/07/31 02:32:26;;;;;;;25.38;20.42;;;;;;;-143.21;82.91;71225.53;5111135;27;20200;-81
2023/07/31 02:34:54;;;;;;;25.33;21.60;;;;;;;-143.21;83.41;71229.50;5112688;27;20224;-85
2023/07/31 02:37:21;;;;;;;25.23;21.83;;;;;;;-143.21;83.30;71221.56;5113248;27;20206;-84
2023/07/31 02:39:47;;;;;;;26.05;22.27;;;;;;;-143.21;83.54;71239.41;5111198;27;20200;-84
2023/07/31 02:42:15;;;;;;;29.15;22.08;;;;;;;-143.21;83.54;71239.41;5114377;27;20208;-84
2023/07/31 02:44:42;;;;;;;27.95;21.85;;;;;;;-143.21;83.90;71239.41;5115887;27;20200;-84
2023/07/31 02:47:09;;;;;;;26.52;20.85;;;;;;;-143.21;83.38;71245.38;5114112;27;20543;-84
2023/07/31 02:49:35;;;;;;;26.55;21.55;;;;;;;-143.21;83.02;71245.38;5113046;27;20203;-84
2023/07/31 02:52:04;;;;;;;26.05;21.30;;;;;;;-143.21;83.18;71249.34;5111465;28;20588;-84
2023/07/31 02:54:31;;;;;;;25.60;20.70;;;;;;;-143.21;83.14;71241.41;5111829;27;20702;-84
2023/07/31 02:57:00;;;;;;;27.00;21.88;;;;;;;-143.21;82.50;71237.44;5111544;27;20636;-84
2023/07/31 02:59:29;;;;;;;26.27;20.77;;;;;;;-143.21;82.50;71233.47;5111056;27;20712;-84
2023/07/31 03:01:55;;;;;;;28.75;21.85;;;;;;;-143.21;81.82;71225.53;5098495;27;20235;-84
2023/07/31 03:04:22;;;;;;;27.58;22.02;;;;;;;-143.21;81.71;71211.66;5112320;27;20200;-84
2023/07/31 03:06:49;;;;;;;27.63;20.63;;;;;;;-143.21;81.43;71217.59;5112109;27;20204;-85
2023/07/31 03:09:17;;;;;;;26.20;20.98;;;;;;;-143.21;81.34;71207.69;5111724;27;20571;-84
2023/07/31 03:11:44;;;;;;;26.92;21.75;;;;;;;-143.21;80.78;71199.78;5115246;27;20210;-84
2023/07/31 03:14:11;;;;;;;31.85;22.63;;;;;;;-143.21;80.53;71195.81;5113538;27;20272;-83
2023/07/31 03:16:37;;;;;;;25.15;20.67;;;;;;;-143.21;80.42;71187.88;5112522;27;20208;-83
2023/07/31 03:19:04;;;;;;;23.55;20.50;;;;;;;-143.21;79.87;71174.00;5110994;27;20212;-83
2023/07/31 03:21:31;;;;;;;24.20;20.23;;;;;;;-143.21;79.73;71181.94;5111959;27;20299;-83
2023/07/31 03:23:58;;;;;;;29.05;21.10;;;;;;;-143.21;80.42;71203.72;5112075;27;20200;-82
2023/07/31 03:26:26;;;;;;;28.27;21.20;;;;;;;-143.21;81.04;71215.63;5110953;27;20204;-82
2023/07/31 03:28:53;;;;;;;27.60;21.30;;;;;;;-143.21;81.34;71217.59;5111807;27;20203;-82
2023/07/31 03:31:19;;;;;;;27.25;21.52;;;;;;;-143.21;80.97;71219.59;5111820;27;20215;-78
2023/07/31 03:33:46;;;;;;;31.88;22.38;;;;;;;-143.21;80.33;71207.69;5110681;27;20200;-79
2023/07/31 03:36:13;;;;;;;29.25;21.45;;;;;;;-143.21;80.68;71215.63;5116963;27;20215;-78
2023/07/31 03:38:40;;;;;;;26.40;21.60;;;;;;;-143.21;80.74;71233.47;5111063;27;20218;-78
2023/07/31 03:41:07;;;;;;;29.27;22.42;;;;;;;-143.21;81.32;71243.38;5115795;27;20203;-78
2023/07/31 03:43:35;;;;;;;26.98;22.27;;;;;;;-143.21;81.68;71259.25;5126384;27;20296;-78
2023/07/31 03:46:02;;;;;;;28.30;21.88;;;;;;;-143.21;81.39;71253.28;5123719;27;20219;-78
2023/07/31 03:48:29;;;;;;;29.92;23.00;;;;;;;-143.21;81.47;71259.25;5115143;27;20607;-78
2023/07/31 03:50:56;;;;;;;34.58;23.00;;;;;;;-143.21;80.89;71255.28;5109914;27;20223;-78
2023/07/31 03:53:23;;;;;;;27.52;22.30;;;;;;;-143.21;81.08;71245.38;5109477;27;20218;-79
2023/07/31 03:55:50;;;;;;;29.15;22.85;;;;;;;-143.21;80.66;71233.47;5110491;27;20599;-80
2023/07/31 03:58:16;;;;;;;28.55;22.90;;;;;;;-143.21;79.98;71227.53;5110863;27;20698;-80
2023/07/31 04:00:44;;;;;;;29.30;21.83;;;;;;;-143.21;79.65;71213.66;5110272;28;20215;-80
2023/07/31 04:03:11;;;;;;;31.80;23.65;;;;;;;-143.21;79.74;71223.56;5111421;27;20212;-78
2023/07/31 04:05:40;;;;;;;29.27;23.15;;;;;;;-143.21;80.06;71233.47;5110630;27;20200;-78
2023/07/31 04:08:07;;;;;;;29.25;23.13;;;;;;;-143.21;80.23;71245.38;5109928;28;20200;-78
2023/07/31 04:10:34;;;;;;;31.20;23.25;;;;;;;-143.21;79.92;71233.47;5123165;27;20649;-78
2023/07/31 04:13:01;;;;;;;31.70;22.63;;;;;;;-143.21;79.74;71235.44;5115055;27;20216;-78
2023/07/31 04:15:28;;;;;;;28.75;22.73;;;;;;;-143.21;80.10;71235.44;5110794;27;20272;-78
2023/07/31 04:17:56;;;;;;;29.67;22.55;;;;;;;-143.21;80.00;71239.41;5109906;28;20211;-78
2023/07/31 04:20:25;;;;;;;28.45;22.38;;;;;;;-143.21;79.99;71241.41;5116856;27;20631;-84
2023/07/31 04:22:55;;;;;;;31.02;22.75;;;;;;;-143.21;80.03;71243.38;5119072;27;20199;-83
2023/07/31 04:25:21;;;;;;;30.92;23.27;;;;;;;-143.21;79.93;71237.44;5112158;27;20204;-84
2023/07/31 04:27:48;;;;;;;30.95;22.67;;;;;;;-143.21;79.26;71237.44;5121402;27;20845;-85
2023/07/31 04:30:15;;;;;;;32.83;23.95;;;;;;;-143.21;79.21;71249.34;5109351;27;20212;-83
2023/07/31 04:32:45;;;;;;;31.08;22.23;;;;;;;-143.21;79.51;71249.34;5109815;27;20208;-83
2023/07/31 04:35:13;;;;;;;30.80;23.77;;;;;;;-143.21;79.80;71261.22;5110912;27;20224;-83
2023/07/31 04:37:39;;;;;;;34.55;24.00;;;;;;;-143.21;80.07;71255.28;5110111;27;20723;-83
2023/07/31 04:40:11;;;;;;;30.63;23.17;;;;;;;-143.21;79.49;71261.22;5110606;27;20591;-83
2023/07/31 04:42:39;;;;;;;27.92;21.88;;;;;;;-143.21;79.28;71255.28;5109578;27;20204;-84
2023/07/31 04:45:06;;;;;;;27.58;21.65;;;;;;;-143.21;79.34;71249.34;5124505;27;20222;-85
2023/07/31 04:47:33;;;;;;;31.60;23.08;;;;;;;-143.21;79.37;71247.34;5111828;27;20204;-83
2023/07/31 04:50:00;;;;;;;30.75;22.33;;;;;;;-143.21;78.54;71235.44;5109704;27;20219;-81
2023/07/31 04:52:28;;;;;;;28.35;21.80;;;;;;;-143.21;78.45;71233.47;5115053;27;20239;-82
2023/07/31 04:54:55;;;;;;;26.83;21.10;;;;;;;-143.21;78.60;71229.50;5109534;27;20235;-82
2023/07/31 04:57:22;;;;;;;28.67;21.95;;;;;;;-143.21;78.63;71233.47;5109375;27;20196;-83
2023/07/31 04:59:48;;;;;;;26.33;21.25;;;;;;;-143.21;78.59;71227.53;5119835;27;20599;-82
2023/07/31 05:02:16;;;;;;;26.65;21.08;;;;;;;-143.21;78.63;71233.47;5113955;27;20207;-82
2023/07/31 05:04:43;;;;;;;25.08;20.45;;;;;;;-143.21;78.75;71241.41;5110351;27;20200;-82
2023/07/31 05:07:10;;;;;;;26.58;21.08;;;;;;;-143.21;79.06;71235.44;5104593;27;20200;-82
2023/07/31 05:09:39;;;;;;;26.60;20.92;;;;;;;-143.21;78.72;71225.53;5108281;27;20574;-82
2023/07/31 05:12:06;;;;;;;31.25;20.58;;;;;;;-143.21;77.80;71195.81;5107434;28;20265;-82
2023/07/31 05:14:33;;;;;;;23.13;18.10;;;;;;;-143.21;76.02;71154.16;5113166;27;20227;-81
2023/07/31 05:17:00;;;;;;;23.65;18.60;;;;;;;-143.21;74.78;71142.28;5107818;27;20971;-82
2023/07/31 05:19:27;;;;;;;23.05;18.25;;;;;;;-143.21;74.80;71140.28;5119327;28;20585;-82
2023/07/31 05:21:53;;;;;;;19.92;16.40;;;;;;;-143.21;74.62;71150.22;5110999;27;20207;-83
2023/07/31 05:24:20;;;;;;;20.77;17.23;;;;;;;-143.21;74.85;71150.22;5105794;28;20300;-83
2023/07/31 05:26:48;;;;;;;20.13;15.23;;;;;;;-143.21;73.97;71152.19;5105895;28;20765;-84
2023/07/31 05:29:16;;;;;;;19.15;16.02;;;;;;;-143.21;73.89;71150.22;5107303;28;20615;-78
2023/07/31 05:31:44;;;;;;;18.50;15.27;;;;;;;-143.21;74.09;71166.06;5109945;27;20717;-78
2023/07/31 05:34:21;;;;;;;17.00;14.70;;;;;;;-143.21;73.94;71152.19;5108241;27;20191;-79
2023/07/31 05:36:48;;;;;;;18.02;13.63;;;;;;;-143.21;72.89;71126.41;5110889;28;20234;-78
2023/07/31 05:39:15;;;;;;;18.17;13.15;;;;;;;-143.21;71.71;71120.47;5106657;28;20636;-78
2023/07/31 05:41:42;;;;;;;15.05;12.18;;;;;;;-143.21;71.97;71152.19;5106765;28;20251;-78
2023/07/31 05:44:10;;;;;;;15.80;11.48;;;;;;;-143.21;72.65;71160.13;5106497;28;20207;-79
2023/07/31 05:46:36;;;;;;;13.52;10.98;;;;;;;-143.21;72.15;71174.00;5099098;28;20622;-79
2023/07/31 05:49:03;;;;;;;14.30;10.73;;;;;;;-143.21;72.91;71201.75;5106911;28;20200;-79
2023/07/31 05:51:30;;;;;;;12.07;10.85;;;;;;;-143.21;72.99;71177.97;5112877;28;20625;-79
2023/07/31 05:53:57;;;;;;;12.75;10.85;;;;;;;-143.21;71.73;71156.16;5112785;28;20250;-79
2023/07/31 05:56:24;;;;;;;13.15;9.95;;;;;;;-143.21;70.34;71118.50;5119132;28;20223;-78
2023/07/31 05:58:51;;;;;;;10.48;9.05;;;;;;;-143.21;68.88;71094.69;5114625;28;20223;-79
2023/07/31 06:01:21;;;;;;;9.52;8.10;;;;;;;-143.21;67.77;71072.88;5106083;28;20261;-79
2023/07/31 06:03:47;;;;;;;10.52;8.30;;;;;;;-143.21;67.59;71086.75;5106454;28;20283;-78
2023/07/31 06:06:15;;;;;;;9.93;7.53;;;;;;;-143.21;67.75;71102.63;5107323;27;20200;-79
2023/07/31 06:08:42;;;;;;;8.95;7.80;;;;;;;-143.21;67.43;71106.59;5110628;27;20203;-79
2023/07/31 06:11:09;;;;;;;10.57;8.38;;;;;;;-143.21;67.62;71112.53;5118999;27;20214;-79
2023/07/31 06:13:36;;;;;;;8.05;7.07;;;;;;;-143.21;67.55;71110.56;5116368;27;20547;-79
2023/07/31 06:16:05;;;;;;;9.35;7.38;;;;;;;-143.21;67.65;71118.50;5110748;27;20227;-79
2023/07/31 06:18:33;;;;;;;9.25;6.65;;;;;;;-143.21;66.80;71098.66;5109163;27;20207;-80
2023/07/31 06:21:00;;;;;;;7.93;6.63;;;;;;;-143.21;65.61;71057.03;5118795;27;21136;-79
2023/07/31 06:23:27;;;;;;;10.40;6.72;;;;;;;-143.21;65.05;71033.25;5110164;27;20195;-79
2023/07/31 06:25:54;;;;;;;9.10;6.40;;;;;;;-143.21;64.50;71051.09;5109806;27;20204;-80
2023/07/31 06:28:21;;;;;;;6.15;5.50;;;;;;;-143.21;64.99;71066.94;5110088;28;20215;-81
2023/07/31 06:30:48;;;;;;;6.20;5.60;;;;;;;-143.21;64.94;71076.84;5111295;27;20276;-81
2023/07/31 06:33:15;;;;;;;5.82;5.22;;;;;;;-143.21;65.58;71088.75;5114426;27;20465;-80
2023/07/31 06:35:45;;;;;;;6.95;5.72;;;;;;;-143.21;65.99;71094.69;5109052;27;20224;-87
2023/07/31 06:38:12;;;;;;;6.65;5.90;;;;;;;-143.21;66.37;71088.75;5111335;27;20223;-83
2023/07/31 06:40:39;;;;;;;6.75;5.50;;;;;;;-143.21;65.94;71070.91;5110831;27;20605;-80
2023/07/31 06:43:07;;;;;;;7.50;5.75;;;;;;;-143.21;64.94;71035.22;5123245;27;20625;-87
2023/07/31 06:45:35;;;;;;;5.80;5.20;;;;;;;-143.21;63.43;70979.72;5116373;27;20203;-83
2023/07/31 06:48:02;;;;;;;6.88;5.30;;;;;;;-143.21;61.68;70961.88;5119104;27;20238;-82
2023/07/31 06:50:29;;;;;;;9.93;4.97;;;;;;;-143.21;59.14;70942.06;5118650;27;20696;-82
2023/07/31 06:52:57;;;;;;;5.63;4.78;;;;;;;-143.21;59.87;70922.22;5110769;27;20236;-83
2023/07/31 06:55:25;;;;;;;5.53;4.88;;;;;;;-143.21;60.08;70926.19;5108601;28;20250;-83
2023/07/31 06:57:54;;;;;;;5.07;4.57;;;;;;;-143.21;60.11;70932.13;5124550;27;20225;-82
2023/07/31 07:00:22;;;;;;;9.27;4.85;;;;;;;-143.21;60.54;70942.06;5113924;27;20590;-83
2023/07/31 07:02:50;;;;;;;5.97;5.10;;;;;;;-143.21;60.45;70949.97;5122481;27;20211;-83
2023/07/31 07:05:17;;;;;;;5.25;4.55;;;;;;;-143.21;60.50;70944.03;5111242;27;20253;-81
2023/07/31 07:07:44;;;;;;;5.03;4.50;;;;;;;-143.21;60.17;70920.25;5111097;27;20208;-80
2023/07/31 07:10:15;;;;;;;6.07;4.50;;;;;;;-143.21;60.28;70938.09;5107335;27;20691;-82
2023/07/31 07:12:42;;;;;;;10.05;5.60;;;;;;;-143.21;61.52;70961.88;5108441;27;20200;-81
2023/07/31 07:15:10;;;;;;;6.50;5.43;;;;;;;-143.21;62.17;70967.81;5109511;27;20211;-83
2023/07/31 07:17:37;;;;;;;11.10;5.63;;;;;;;-143.21;62.77;70963.84;5110126;27;20247;-83
2023/07/31 07:20:04;;;;;;;6.38;4.43;;;;;;;-143.21;60.82;70963.84;5108675;27;20200;-83
2023/07/31 07:22:31;;;;;;;4.70;4.00;;;;;;;-143.21;61.01;70983.69;5111572;27;20200;-79
2023/07/31 07:24:58;;;;;;;8.10;4.93;;;;;;;-143.21;61.63;70991.63;5110194;28;20215;-80
2023/07/31 07:27:26;;;;;;;7.93;4.43;;;;;;;-143.21;62.25;70981.69;5112976;28;20564;-80
2023/07/31 07:29:53;;;;;;;6.35;4.63;;;;;;;-143.21;61.98;70963.84;5112475;28;20585;-81
2023/07/31 07:32:20;;;;;;;5.88;5.07;;;;;;;-143.21;61.52;70948.00;5112981;28;20226;-81
2023/07/31 07:34:48;;;;;;;6.93;5.57;;;;;;;-143.21;59.65;70910.34;5113102;28;20204;-80
2023/07/31 07:37:15;;;;;;;11.73;5.63;;;;;;;-143.21;57.76;70884.56;5112733;27;20639;-80
2023/07/31 07:39:42;;;;;;;9.00;7.20;;;;;;;-143.21;58.11;70864.75;5112977;28;20207;-80
2023/07/31 07:42:09;;;;;;;6.90;5.20;;;;;;;-143.21;58.07;70876.63;5120566;27;20196;-81
2023/07/31 07:44:37;;;;;;;6.97;5.47;;;;;;;-143.21;58.78;70908.34;5126837;27;20694;-80
2023/07/31 07:47:05;;;;;;;5.97;4.80;;;;;;;-143.21;58.58;70914.31;5113357;28;20204;-80
2023/07/31 07:49:32;;;;;;;5.70;3.67;;;;;;;-143.21;57.24;70944.03;5111941;28;20200;-80
2023/07/31 07:51:59;;;;;;;3.95;3.10;;;;;;;-143.21;57.93;70971.78;5112554;28;20246;-80
2023/07/31 07:54:26;;;;;;;4.30;3.40;;;;;;;-143.21;58.39;70979.72;5112516;28;20208;-80
2023/07/31 07:56:53;;;;;;;6.22;4.18;;;;;;;-143.21;59.26;70981.69;5112960;28;20255;-80
2023/07/31 07:59:20;;;;;;;4.25;3.83;;;;;;;-143.21;59.88;70977.72;5112670;28;20211;-80
2023/07/31 08:01:48;;;;;;;5.53;4.18;;;;;;;-143.21;60.05;70965.84;5112511;28;20196;-81
2023/07/31 08:04:15;;;;;;;8.18;4.35;;;;;;;-143.21;59.55;70946.03;5112603;28;20200;-80
2023/07/31 08:06:41;;;;;;;5.38;3.92;;;;;;;-143.21;58.70;70938.09;5112536;28;20200;-80
2023/07/31 08:09:09;;;;;;;4.78;3.95;;;;;;;-143.21;58.97;70932.13;5112619;28;20199;-81
2023/07/31 08:11:36;;;;;;;8.55;4.30;;;;;;;-143.21;59.15;70920.25;5103525;27;20200;-79
2023/07/31 08:14:03;;;;;;;4.78;4.22;;;;;;;-143.21;58.76;70896.47;5131441;27;20542;-80
2023/07/31 08:16:30;;;;;;;5.15;4.65;;;;;;;-143.21;57.86;70884.56;5112446;28;20261;-80
2023/07/31 08:18:58;;;;;;;6.25;4.38;;;;;;;-143.21;57.42;70892.50;5112695;28;20210;-80
2023/07/31 08:21:25;;;;;;;4.72;4.22;;;;;;;-143.21;56.95;70874.66;5112034;28;20234;-79
2023/07/31 08:23:52;;;;;;;7.50;4.47;;;;;;;-143.21;56.16;70835.00;5112882;28;20188;-79
2023/07/31 08:26:19;;;;;;;6.60;4.70;;;;;;;-143.21;54.96;70827.06;5112331;28;20207;-81
2023/07/31 08:28:47;;;;;;;5.07;4.10;;;;;;;-143.21;54.28;70811.22;5111797;28;20203;-80
2023/07/31 08:31:13;;;;;;;5.80;4.00;;;;;;;-143.21;55.10;70815.19;5111849;28;20234;-80
2023/07/31 08:33:41;;;;;;;5.43;3.90;;;;;;;-143.21;55.03;70833.03;5111692;28;20214;-80
2023/07/31 08:36:09;;;;;;;4.43;3.70;;;;;;;-143.21;55.51;70833.03;5112256;28;20216;-80
2023/07/31 08:38:36;;;;;;;4.85;3.72;;;;;;;-143.21;55.73;70829.06;5112487;27;20207;-80
2023/07/31 08:41:04;;;;;;;5.30;3.80;;;;;;;-143.21;55.46;70825.09;5112159;28;20275;-80
2023/07/31 08:43:32;;;;;;;4.47;3.75;;;;;;;-143.21;55.53;70823.13;5112231;28;20235;-80
2023/07/31 08:45:59;;;;;;;5.05;3.78;;;;;;;-143.21;55.48;70821.13;5112001;28;20234;-80
2023/07/31 08:48:27;;;;;;;4.45;3.60;;;;;;;-143.21;55.29;70807.25;5112097;28;20236;-80
2023/07/31 08:50:54;;;;;;;6.95;3.63;;;;;;;-143.21;54.28;70809.25;5102934;28;20224;-80
2023/07/31 08:53:22;;;;;;;5.28;4.00;;;;;;;-143.21;54.70;70803.28;5112100;28;20685;-79
2023/07/31 08:55:50;;;;;;;6.10;3.83;;;;;;;-143.21;53.55;70799.31;5109107;28;20228;-79
2023/07/31 08:58:18;;;;;;;4.57;3.22;;;;;;;-143.21;53.54;70777.53;5109765;28;20200;-79
2023/07/31 09:00:47;;;;;;;6.10;3.70;;;;;;;-143.21;52.76;70735.91;5106033;28;20203;-80
2023/07/31 09:03:18;;;;;;;4.63;3.35;;;;;;;-143.21;52.35;70706.16;5116340;27;20222;-80
2023/07/31 09:05:47;;;;;;;5.90;3.53;;;;;;;-143.21;51.75;70690.31;5112841;27;20203;-79
2023/07/31 09:08:16;;;;;;;6.47;3.50;;;;;;;-143.21;51.11;70698.22;5108765;27;20200;-79
2023/07/31 09:10:46;;;;;;;9.93;3.50;;;;;;;-143.21;51.28;70690.31;5110330;28;20257;-80
2023/07/31 09:13:13;;;;;;;5.05;3.85;;;;;;;-143.21;51.23;70682.38;5110432;28;20247;-80
2023/07/31 09:15:40;;;;;;;4.40;3.55;;;;;;;-143.21;51.28;70666.50;5110842;28;20204;-80
2023/07/31 09:18:08;;;;;;;4.85;3.60;;;;;;;-143.21;51.77;70688.31;5110280;28;20198;-80
2023/07/31 09:20:36;;;;;;;5.47;3.58;;;;;;;-143.21;52.18;70702.19;5111029;28;20200;-80
2023/07/31 09:23:09;;;;;;;4.28;3.78;;;;;;;-143.21;52.30;70690.31;5111229;28;20693;-80
2023/07/31 09:25:38;;;;;;;5.15;3.50;;;;;;;-143.21;51.83;70674.44;5110649;28;20211;-80
2023/07/31 09:28:08;;;;;;;4.72;3.80;;;;;;;-143.21;51.80;70688.31;5111016;28;20634;-80
2023/07/31 09:30:46;;;;;;;4.18;3.70;;;;;;;-143.21;52.07;70674.44;5111574;28;20227;-80
2023/07/31 09:33:13;;;;;;;3.70;3.40;;;;;;;-143.21;51.44;70668.50;5111234;28;20304;-80
2023/07/31 09:35:41;;;;;;;4.00;3.60;;;;;;;-143.21;51.52;70658.59;5102860;28;20199;-80
2023/07/31 09:38:10;;;;;;;6.97;3.65;;;;;;;-143.21;50.41;70654.63;5111078;28;20697;-80
2023/07/31 09:40:40;;;;;;;4.80;3.53;;;;;;;-143.21;50.71;70634.81;5110972;28;20543;-81
2023/07/31 09:43:10;;;;;;;4.32;3.65;;;;;;;-143.21;49.54;70587.22;5123137;27;20200;-81
2023/07/31 09:45:38;;;;;;;3.40;3.03;;;;;;;-143.21;48.94;70553.53;5115174;28;20236;-81
2023/07/31 09:48:08;;;;;;;4.78;3.40;;;;;;;-143.21;49.07;70539.66;5115180;28;20191;-81
2023/07/31 09:50:39;;;;;;;4.05;3.28;;;;;;;-143.21;48.03;70531.72;5115639;28;20200;-80
2023/07/31 09:53:06;;;;;;;3.20;2.85;;;;;;;-143.21;48.10;70527.75;5114938;28;20581;-81
2023/07/31 09:55:34;;;;;;;4.38;3.25;;;;;;;-143.21;47.46;70535.69;5115147;28;20207;-81
2023/07/31 09:58:04;;;;;;;7.07;3.08;;;;;;;-143.21;48.10;70549.56;5114439;28;20219;-80
2023/07/31 10:00:33;;;;;;;3.55;3.00;;;;;;;-143.21;48.76;70535.69;5115086;28;20200;-81
2023/07/31 10:03:01;;;;;;;4.03;3.03;;;;;;;-143.21;48.37;70503.97;5114351;28;20196;-81
2023/07/31 10:05:32;;;;;;;4.40;2.80;;;;;;;-143.21;47.82;70478.22;5114414;28;20235;-81
2023/07/31 10:07:59;;;;;;;3.60;2.92;;;;;;;-143.21;47.16;70452.44;5114161;28;20283;-81
2023/07/31 10:10:28;;;;;;;3.70;3.33;;;;;;;-143.21;46.94;70434.59;5115129;28;20188;-81
2023/07/31 10:12:56;;;;;;;3.13;2.83;;;;;;;-143.21;45.45;70430.66;5114711;28;20228;-81
2023/07/31 10:15:24;;;;;;;2.95;2.58;;;;;;;-143.21;44.97;70422.72;5115527;28;20591;-82
2023/07/31 10:17:53;;;;;;;3.95;2.72;;;;;;;-143.21;45.70;70442.53;5115259;28;20220;-81
2023/07/31 10:20:20;;;;;;;3.60;2.78;;;;;;;-143.21;45.37;70424.69;5114856;28;20208;-80
2023/07/31 10:22:47;;;;;;;3.42;2.83;;;;;;;-143.21;45.38;70420.72;5115372;28;20196;-80
2023/07/31 10:25:16;;;;;;;3.78;2.60;;;;;;;-143.21;45.40;70400.91;5115372;28;20659;-80
2023/07/31 10:27:43;;;;;;;3.20;2.42;;;;;;;-143.21;44.93;70373.16;5114967;28;20581;-80
2023/07/31 10:30:14;;;;;;;4.25;2.53;;;;;;;-143.21;43.44;70363.25;5112989;28;20203;-81
2023/07/31 10:32:42;;;;;;;6.68;3.00;;;;;;;-143.21;44.11;70343.44;5114625;28;20196;-80
2023/07/31 10:35:11;;;;;;;4.00;2.67;;;;;;;-143.21;43.33;70343.44;5119629;27;20228;-80
2023/07/31 10:37:40;;;;;;;3.05;2.50;;;;;;;-143.21;43.88;70373.16;5113925;28;20228;-80
2023/07/31 10:40:10;;;;;;;3.58;2.70;;;;;;;-143.21;44.58;70398.94;5114685;28;20206;-80
2023/07/31 10:42:39;;;;;;;3.70;2.70;;;;;;;-143.21;44.83;70387.03;5114367;27;20588;-80
2023/07/31 10:45:09;;;;;;;6.63;2.90;;;;;;;-143.21;44.17;70343.44;5114018;28;20200;-82
2023/07/31 10:47:40;;;;;;;4.53;2.80;;;;;;;-143.21;43.00;70323.63;5100336;28;20204;-80
2023/07/31 10:50:19;;;;;;;2.80;2.53;;;;;;;-143.21;43.38;70339.47;5114864;28;20188;-81
2023/07/31 10:52:49;;;;;;;2.50;2.30;;;;;;;-143.21;42.72;70313.72;5114363;28;20628;-81
2023/07/31 10:55:23;;;;;;;2.80;2.50;;;;;;;-143.21;42.12;70297.84;5114474;28;20249;-81
2023/07/31 10:57:50;;;;;;;2.33;2.13;;;;;;;-143.21;41.47;70270.09;5121004;27;20203;-81
2023/07/31 11:00:22;;;;;;;2.55;2.30;;;;;;;-143.21;41.75;70268.13;5118037;27;20199;-81
2023/07/31 11:03:03;;;;;;;3.10;2.20;;;;;;;-143.21;40.92;70244.34;5106022;28;20200;-81
2023/07/31 11:05:46;;;;;;;3.08;2.78;;;;;;;-143.21;41.22;70258.22;5113463;28;20654;-80
2023/07/31 11:08:14;;;;;;;3.30;2.45;;;;;;;-143.21;40.36;70226.50;5113782;27;20294;-80
2023/07/31 11:10:41;;;;;;;4.43;2.35;;;;;;;-143.21;40.31;70214.59;5114605;28;20184;-81
2023/07/31 11:13:08;;;;;;;3.83;2.30;;;;;;;-143.21;40.65;70230.47;5114489;28;20287;-80